createdAt,value
2022-10-29T00:00:07.827Z,98577.97
2022-10-29T00:02:35.391Z,98580.19
2022-10-29T00:05:02.913Z,98581.69
2022-10-29T00:07:30.387Z,98588.75
2022-10-29T00:09:57.856Z,98585.97
2022-10-29T00:12:26.653Z,98590.72
2022-10-29T00:14:54.120Z,98594.44
2022-10-29T00:17:21.612Z,98593.16
2022-10-29T00:19:49.584Z,98598.78
2022-10-29T00:22:17.050Z,98594.22
2022-10-29T00:24:44.534Z,98587.16
2022-10-29T00:27:12.068Z,98584.28
2022-10-29T00:29:40.861Z,98583.00
2022-10-29T00:32:09.870Z,98575.28
2022-10-29T00:34:37.836Z,98577.38
2022-10-29T00:37:05.900Z,98581.03
2022-10-29T00:39:34.335Z,98588.09
2022-10-29T00:42:01.863Z,98590.97
2022-10-29T00:44:33.523Z,98589.50
2022-10-29T00:47:13.785Z,98582.09
2022-10-29T00:49:43.272Z,98585.59
2022-10-29T00:52:11.552Z,98578.66
2022-10-29T00:54:42.503Z,98578.63
2022-10-29T00:57:13.568Z,98575.16
2022-10-29T00:59:42.400Z,98579.00
2022-10-29T01:02:11.994Z,98570.56
2022-10-29T01:04:40.556Z,98576.53
2022-10-29T01:07:08.032Z,98568.91
2022-10-29T01:09:35.651Z,98563.72
2022-10-29T01:12:19.656Z,98567.97
2022-10-29T01:14:56.855Z,98563.91
2022-10-29T01:17:32.119Z,98558.78
2022-10-29T01:20:33.160Z,98568.59
2022-10-29T01:23:12.662Z,98567.53
2022-10-29T01:26:06.088Z,98561.03
2022-10-29T01:28:47.346Z,98565.28
2022-10-29T01:31:25.561Z,98553.25
2022-10-29T01:34:00.294Z,98550.78
2022-10-29T01:36:33.765Z,98547.66
2022-10-29T01:39:06.049Z,98544.13
2022-10-29T01:41:40.964Z,98543.69
2022-10-29T01:44:18.129Z,98534.75
2022-10-29T01:46:53.722Z,98543.41
2022-10-29T01:49:27.006Z,98539.06
2022-10-29T01:51:56.820Z,98541.13
2022-10-29T01:54:24.670Z,98539.44
2022-10-29T01:56:56.766Z,98541.13
2022-10-29T01:59:36.122Z,98542.72
2022-10-29T02:02:23.600Z,98546.03
2022-10-29T02:05:02.640Z,98545.41
2022-10-29T02:07:45.691Z,98536.50
2022-10-29T02:10:20.503Z,98534.63
2022-10-29T02:12:50.523Z,98528.00
2022-10-29T02:15:22.565Z,98534.38
2022-10-29T02:17:51.652Z,98530.63
2022-10-29T02:20:19.828Z,98527.09
2022-10-29T02:22:47.295Z,98531.63
2022-10-29T02:25:14.814Z,98527.47
2022-10-29T02:27:42.437Z,98523.63
2022-10-29T02:30:10.786Z,98527.41
2022-10-29T02:32:38.288Z,98526.81
2022-10-29T02:35:08.010Z,98522.06
2022-10-29T02:37:35.768Z,98522.63
2022-10-29T02:40:03.580Z,98532.06
2022-10-29T02:42:31.062Z,98520.16
2022-10-29T02:44:58.616Z,98518.88
2022-10-29T02:47:26.252Z,98517.41
2022-10-29T02:49:53.717Z,98517.00
2022-10-29T02:52:22.606Z,98521.56
2022-10-29T02:54:50.049Z,98522.78
2022-10-29T02:57:17.578Z,98514.06
2022-10-29T02:59:45.094Z,98519.44
2022-10-29T03:02:12.647Z,98511.56
2022-10-29T03:04:41.237Z,98512.34
2022-10-29T03:07:08.704Z,98508.81
2022-10-29T03:09:37.508Z,98502.22
2022-10-29T03:12:05.133Z,98506.09
2022-10-29T03:14:32.589Z,98501.94
2022-10-29T03:17:00.060Z,98495.28
2022-10-29T03:19:27.533Z,98503.09
2022-10-29T03:21:55.025Z,98512.44
2022-10-29T03:24:22.470Z,98506.50
2022-10-29T03:26:51.282Z,98504.38
2022-10-29T03:29:18.754Z,98504.81
2022-10-29T03:31:46.226Z,98509.13
2022-10-29T03:34:13.686Z,98503.94
2022-10-29T03:36:41.161Z,98507.72
2022-10-29T03:39:08.881Z,98502.06
2022-10-29T03:41:36.333Z,98502.38
2022-10-29T03:44:05.202Z,98504.06
2022-10-29T03:46:32.896Z,98496.75
2022-10-29T03:49:00.379Z,98498.03
2022-10-29T03:51:27.956Z,98503.59
2022-10-29T03:53:55.421Z,98499.63
2022-10-29T03:56:22.933Z,98507.53
2022-10-29T03:58:50.387Z,98514.44
2022-10-29T04:01:19.303Z,98516.31
2022-10-29T04:03:46.813Z,98520.00
2022-10-29T04:06:16.292Z,98532.28
2022-10-29T04:08:43.988Z,98529.13
2022-10-29T04:11:12.916Z,98530.16
2022-10-29T04:13:40.433Z,98530.53
2022-10-29T04:16:08.524Z,98532.94
2022-10-29T04:18:37.361Z,98531.81
2022-10-29T04:29:30.301Z,98544.72
2022-10-29T04:31:57.737Z,98540.72
2022-10-29T04:34:26.536Z,98543.03
2022-10-29T04:36:54.338Z,98541.75
2022-10-29T04:39:23.439Z,98547.34
2022-10-29T04:41:51.156Z,98543.53
2022-10-29T04:44:19.895Z,98545.38
2022-10-29T04:46:47.348Z,98545.94
2022-10-29T04:49:14.838Z,98542.69
2022-10-29T04:51:43.832Z,98540.75
2022-10-29T04:54:11.451Z,98544.75
2022-10-29T04:56:38.924Z,98542.22
2022-10-29T04:59:06.408Z,98531.69
2022-10-29T05:04:06.440Z,98531.75
2022-10-29T05:06:33.911Z,98538.72
2022-10-29T05:09:02.940Z,98543.06
2022-10-29T05:11:30.461Z,98532.31
2022-10-29T05:13:57.940Z,98534.63
2022-10-29T05:16:25.400Z,98532.13
2022-10-29T05:18:52.844Z,98530.09
2022-10-29T05:21:20.327Z,98541.03
2022-10-29T05:23:47.804Z,98535.66
2022-10-29T05:26:16.609Z,98534.38
2022-10-29T05:28:44.091Z,98536.00
2022-10-29T05:31:11.575Z,98538.53
2022-10-29T05:33:39.069Z,98544.09
2022-10-29T05:36:06.945Z,98548.72
2022-10-29T05:38:34.411Z,98548.72
2022-10-29T05:41:02.163Z,98541.50
2022-10-29T05:43:30.952Z,98542.97
2022-10-29T05:45:58.428Z,98547.50
2022-10-29T05:48:25.885Z,98546.31
2022-10-29T05:50:53.360Z,98548.34
2022-10-29T05:53:20.848Z,98545.03
2022-10-29T05:55:48.324Z,98546.66
2022-10-29T05:58:15.809Z,98545.38
2022-10-29T06:00:46.336Z,98545.22
2022-10-29T06:03:15.799Z,98546.88
2022-10-29T06:05:43.440Z,98551.59
2022-10-29T06:08:11.213Z,98557.44
2022-10-29T06:10:39.241Z,98557.63
2022-10-29T06:13:11.846Z,98557.63
2022-10-29T06:15:39.336Z,98552.06
2022-10-29T06:18:08.208Z,98542.06
2022-10-29T06:20:36.663Z,98548.06
2022-10-29T06:23:04.740Z,98550.22
2022-10-29T06:25:32.476Z,98544.00
2022-10-29T06:28:01.718Z,98542.78
2022-10-29T06:30:29.805Z,98546.88
2022-10-29T06:32:57.781Z,98544.81
2022-10-29T06:35:27.550Z,98552.34
2022-10-29T06:37:55.643Z,98550.66
2022-10-29T06:40:23.827Z,98552.72
2022-10-29T06:42:51.379Z,98554.56
2022-10-29T06:45:19.064Z,98553.34
2022-10-29T06:47:46.732Z,98554.63
2022-10-29T06:50:14.703Z,98546.94
2022-10-29T06:52:43.879Z,98543.03
2022-10-29T06:55:11.352Z,98541.84
2022-10-29T06:57:38.815Z,98551.94
2022-10-29T07:00:08.730Z,98547.97
2022-10-29T07:02:36.589Z,98545.72
2022-10-29T07:05:04.313Z,98540.63
2022-10-29T07:07:31.808Z,98543.03
2022-10-29T07:10:00.622Z,98533.56
2022-10-29T07:12:28.100Z,98543.25
2022-10-29T07:14:55.533Z,98536.13
2022-10-29T07:17:22.999Z,98544.81
2022-10-29T07:19:50.461Z,98531.00
2022-10-29T07:22:17.939Z,98537.75
2022-10-29T07:24:45.376Z,98538.94
2022-10-29T07:27:14.304Z,98541.00
2022-10-29T07:29:41.828Z,98547.41
2022-10-29T07:32:09.317Z,98542.81
2022-10-29T07:34:36.847Z,98541.34
2022-10-29T07:37:04.539Z,98545.06
2022-10-29T07:42:05.479Z,98552.88
2022-10-29T07:44:34.300Z,98542.84
2022-10-29T07:47:03.017Z,98559.63
2022-10-29T07:49:30.463Z,98555.25
2022-10-29T07:51:58.017Z,98563.81
2022-10-29T07:54:25.635Z,98558.16
2022-10-29T07:56:53.205Z,98553.63
2022-10-29T07:59:21.136Z,98552.78
2022-10-29T08:01:50.097Z,98554.28
2022-10-29T08:04:17.731Z,98558.66
2022-10-29T08:06:45.350Z,98553.03
2022-10-29T08:09:13.104Z,98572.72
2022-10-29T08:11:40.635Z,98559.91
2022-10-29T08:14:08.120Z,98561.31
2022-10-29T08:16:35.675Z,98562.66
2022-10-29T08:19:04.471Z,98559.78
2022-10-29T08:21:31.967Z,98562.59
2022-10-29T08:23:59.442Z,98562.59
2022-10-29T08:26:26.955Z,98564.53
2022-10-29T08:28:54.412Z,98568.72
2022-10-29T08:31:21.905Z,98563.81
2022-10-29T08:33:49.538Z,98561.59
2022-10-29T08:36:18.331Z,98564.56
2022-10-29T08:38:47.622Z,98564.19
2022-10-29T08:41:34.522Z,98564.16
2022-10-29T08:44:34.116Z,98561.13
2022-10-29T08:47:14.547Z,98570.28
2022-10-29T08:49:47.133Z,98569.22
2022-10-29T08:52:20.818Z,98566.59
2022-10-29T08:54:54.314Z,98568.00
2022-10-29T08:57:26.193Z,98566.63
2022-10-29T09:00:02.938Z,98574.16
2022-10-29T09:02:31.110Z,98573.69
2022-10-29T09:04:59.505Z,98573.53
2022-10-29T09:07:47.261Z,98571.53
2022-10-29T09:10:26.325Z,98568.81
2022-10-29T09:13:11.289Z,98569.91
2022-10-29T09:15:57.683Z,98558.28
2022-10-29T09:18:36.295Z,98565.00
2022-10-29T09:21:12.960Z,98566.28
2022-10-29T09:23:59.436Z,98562.34
2022-10-29T09:26:32.228Z,98565.47
2022-10-29T09:29:21.074Z,98570.41
2022-10-29T09:31:51.946Z,98566.81
2022-10-29T09:34:30.754Z,98561.25
2022-10-29T09:36:59.172Z,98560.56
2022-10-29T09:39:33.897Z,98557.97
2022-10-29T09:42:03.487Z,98553.19
2022-10-29T09:44:38.667Z,98552.31
2022-10-29T09:47:15.877Z,98553.56
2022-10-29T09:49:57.387Z,98551.53
2022-10-29T09:52:30.072Z,98541.47
2022-10-29T09:55:01.808Z,98544.63
2022-10-29T09:57:35.164Z,98541.72
2022-10-29T10:00:05.897Z,98544.44
2022-10-29T10:02:37.591Z,98539.44
2022-10-29T10:05:07.995Z,98537.84
2022-10-29T10:07:35.503Z,98544.00
2022-10-29T10:10:06.484Z,98538.78
2022-10-29T10:12:46.542Z,98537.56
2022-10-29T10:15:24.915Z,98530.78
2022-10-29T10:17:59.053Z,98527.63
2022-10-29T10:20:34.142Z,98532.25
2022-10-29T10:23:02.554Z,98519.38
2022-10-29T10:25:37.662Z,98517.19
2022-10-29T10:28:16.721Z,98517.44
2022-10-29T10:30:44.697Z,98518.09
2022-10-29T10:33:13.677Z,98509.00
2022-10-29T10:35:41.403Z,98509.69
2022-10-29T10:38:11.747Z,98507.63
2022-10-29T10:40:43.219Z,98501.16
2022-10-29T10:43:20.156Z,98503.13
2022-10-29T10:45:54.348Z,98494.81
2022-10-29T10:48:25.917Z,98488.88
2022-10-29T10:51:11.480Z,98496.66
2022-10-29T10:53:40.648Z,98492.41
2022-10-29T10:56:17.441Z,98489.13
2022-10-29T10:58:50.780Z,98492.19
2022-10-29T11:01:24.588Z,98487.00
2022-10-29T11:04:01.661Z,98487.16
2022-10-29T11:06:33.253Z,98487.63
2022-10-29T11:09:07.742Z,98478.94
2022-10-29T11:11:40.426Z,98479.34
2022-10-29T11:14:14.741Z,98479.69
2022-10-29T11:16:46.324Z,98485.38
2022-10-29T11:19:20.430Z,98480.34
2022-10-29T11:21:58.991Z,98472.31
2022-10-29T11:24:34.523Z,98480.34
2022-10-29T11:27:11.360Z,98474.81
2022-10-29T11:29:49.073Z,98482.09
2022-10-29T11:32:21.651Z,98473.16
2022-10-29T11:34:56.424Z,98473.53
2022-10-29T11:37:32.472Z,98467.88
2022-10-29T11:40:04.172Z,98464.66
2022-10-29T11:42:33.019Z,98469.53
2022-10-29T11:45:00.924Z,98457.28
2022-10-29T11:47:41.176Z,98468.34
2022-10-29T11:50:20.049Z,98457.44
2022-10-29T11:52:55.122Z,98442.72
2022-10-29T11:55:31.371Z,98448.34
2022-10-29T11:58:04.916Z,98436.00
2022-10-29T12:00:45.230Z,98432.91
2022-10-29T12:03:32.830Z,98430.25
2022-10-29T12:06:12.189Z,98430.50
2022-10-29T12:08:57.231Z,98425.94
2022-10-29T12:11:32.627Z,98418.56
2022-10-29T12:14:12.102Z,98426.16
2022-10-29T12:16:51.087Z,98407.94
2022-10-29T12:19:30.535Z,98413.78
2022-10-29T12:22:05.102Z,98402.13
2022-10-29T12:24:47.212Z,98402.06
2022-10-29T12:27:24.192Z,98401.06
2022-10-29T12:29:59.746Z,98393.94
2022-10-29T12:32:34.308Z,98389.94
2022-10-29T12:35:12.447Z,98399.91
2022-10-29T12:37:45.256Z,98395.22
2022-10-29T12:40:19.152Z,98394.91
2022-10-29T12:42:48.186Z,98384.03
2022-10-29T12:45:39.874Z,98378.50
2022-10-29T12:48:23.932Z,98386.25
2022-10-29T12:50:59.065Z,98383.78
2022-10-29T12:53:31.540Z,98379.41
2022-10-29T12:55:59.568Z,98375.94
2022-10-29T12:58:48.587Z,98381.16
2022-10-29T13:04:34.807Z,98364.03
2022-10-29T13:07:22.595Z,98359.56
2022-10-29T13:09:50.358Z,98364.59
2022-10-29T13:12:51.206Z,98352.41
2022-10-29T13:15:22.784Z,98360.06
2022-10-29T13:17:56.073Z,98354.19
2022-10-29T13:20:27.851Z,98356.56
2022-10-29T13:22:57.470Z,98358.03
2022-10-29T13:25:51.429Z,98351.72
2022-10-29T13:29:01.600Z,98349.53
2022-10-29T13:31:49.603Z,98350.75
2022-10-29T13:34:56.821Z,98347.34
2022-10-29T13:38:10.416Z,98348.94
2022-10-29T13:41:08.183Z,98343.34
2022-10-29T13:43:35.982Z,98351.47
2022-10-29T13:46:26.965Z,98347.41
2022-10-29T13:48:58.538Z,98347.34
2022-10-29T13:51:36.084Z,98348.06
2022-10-29T13:54:10.867Z,98336.13
2022-10-29T13:56:45.952Z,98332.75
2022-10-29T13:59:21.961Z,98340.97
2022-10-29T14:02:00.249Z,98340.28
2022-10-29T14:04:33.849Z,98345.28
2022-10-29T14:07:07.337Z,98341.72
2022-10-29T14:09:41.799Z,98339.34
2022-10-29T14:12:11.375Z,98337.47
2022-10-29T14:14:49.099Z,98334.81
2022-10-29T14:17:18.703Z,98343.66
2022-10-29T14:19:48.283Z,98339.59
2022-10-29T14:22:33.308Z,98341.72
2022-10-29T14:25:01.995Z,98349.13
2022-10-29T14:27:30.063Z,98335.06
2022-10-29T14:30:14.276Z,98334.16
2022-10-29T14:32:42.050Z,98339.81
2022-10-29T14:35:16.123Z,98324.44
2022-10-29T14:37:48.894Z,98326.00
2022-10-29T14:40:21.513Z,98328.44
2022-10-29T14:42:53.693Z,98329.88
2022-10-29T14:45:24.603Z,98333.84
2022-10-29T14:47:54.552Z,98330.94
2022-10-29T14:50:24.394Z,98329.75
2022-10-29T14:52:57.463Z,98327.16
2022-10-29T14:55:28.120Z,98328.53
2022-10-29T14:58:03.411Z,98319.66
2022-10-29T15:00:35.668Z,98322.78
2022-10-29T15:03:04.233Z,98323.91
2022-10-29T15:05:33.716Z,98328.28
2022-10-29T15:08:07.475Z,98332.16
2022-10-29T15:10:46.866Z,98329.94
2022-10-29T15:13:30.437Z,98320.31
2022-10-29T15:16:01.735Z,98322.59
2022-10-29T15:18:30.598Z,98317.97
2022-10-29T15:20:58.423Z,98314.38
2022-10-29T15:23:29.291Z,98318.16
2022-10-29T15:26:03.166Z,98321.88
2022-10-29T15:28:37.745Z,98312.41
2022-10-29T15:31:05.980Z,98311.19
2022-10-29T15:33:33.689Z,98311.47
2022-10-29T15:36:03.917Z,98312.72
2022-10-29T15:39:05.089Z,98314.31
2022-10-29T15:41:38.505Z,98319.34
2022-10-29T15:44:33.757Z,98309.03
2022-10-29T15:47:03.111Z,98313.53
2022-10-29T15:49:32.660Z,98317.81
2022-10-29T15:52:01.485Z,98321.03
2022-10-29T15:54:29.601Z,98319.53
2022-10-29T15:56:59.054Z,98328.53
2022-10-29T15:59:28.030Z,98319.91
2022-10-29T16:01:55.634Z,98313.56
2022-10-29T16:04:23.161Z,98318.72
2022-10-29T16:06:50.685Z,98321.88
2022-10-29T16:09:21.674Z,98321.31
2022-10-29T16:11:50.596Z,98316.03
2022-10-29T16:14:19.410Z,98319.47
2022-10-29T16:16:47.458Z,98319.19
2022-10-29T16:19:14.897Z,98320.75
2022-10-29T16:21:42.417Z,98326.00
2022-10-29T16:24:14.284Z,98319.34
2022-10-29T16:26:41.763Z,98321.03
2022-10-29T16:29:10.306Z,98319.75
2022-10-29T16:31:39.153Z,98323.44
2022-10-29T16:34:07.546Z,98327.31
2022-10-29T16:36:35.055Z,98326.63
2022-10-29T16:39:02.511Z,98326.88
2022-10-29T16:41:30.536Z,98337.84
2022-10-29T16:43:58.014Z,98333.72
2022-10-29T16:46:25.492Z,98319.91
2022-10-29T16:48:54.326Z,98330.47
2022-10-29T16:51:21.804Z,98328.22
2022-10-29T16:53:49.260Z,98325.81
2022-10-29T16:56:16.719Z,98332.97
2022-10-29T16:58:44.185Z,98327.69
2022-10-29T17:01:11.721Z,98326.25
2022-10-29T17:03:39.902Z,98324.22
2022-10-29T17:06:11.233Z,98317.25
2022-10-29T17:08:39.260Z,98329.63
2022-10-29T17:11:09.785Z,98335.75
2022-10-29T17:13:37.815Z,98337.63
2022-10-29T17:16:08.897Z,98333.63
2022-10-29T17:18:36.424Z,98335.00
2022-10-29T17:21:04.106Z,98337.78
2022-10-29T17:23:33.658Z,98340.19
2022-10-29T17:26:01.513Z,98337.25
2022-10-29T17:28:29.453Z,98337.88
2022-10-29T17:30:56.931Z,98343.84
2022-10-29T17:33:24.438Z,98347.47
2022-10-29T17:36:01.868Z,98345.25
2022-10-29T17:38:29.358Z,98344.66
2022-10-29T17:40:58.193Z,98349.59
2022-10-29T17:43:25.674Z,98355.63
2022-10-29T17:45:53.157Z,98357.34
2022-10-29T17:48:24.046Z,98354.97
2022-10-29T17:50:53.573Z,98355.38
2022-10-29T17:53:21.036Z,98363.06
2022-10-29T17:55:48.760Z,98356.63
2022-10-29T17:58:18.708Z,98362.81
2022-10-29T18:00:48.142Z,98356.56
2022-10-29T18:03:15.933Z,98360.94
2022-10-29T18:05:43.445Z,98355.13
2022-10-29T18:08:10.972Z,98362.63
2022-10-29T18:10:38.467Z,98362.81
2022-10-29T18:13:05.921Z,98359.97
2022-10-29T18:15:34.865Z,98358.72
2022-10-29T18:18:02.363Z,98355.41
2022-10-29T18:20:29.889Z,98356.22
2022-10-29T18:22:57.812Z,98355.25
2022-10-29T18:25:25.478Z,98353.19
2022-10-29T18:27:55.442Z,98349.63
2022-10-29T18:30:23.719Z,98354.00
2022-10-29T18:32:52.506Z,98357.94
2022-10-29T18:35:20.033Z,98355.06
2022-10-29T18:37:47.701Z,98349.28
2022-10-29T18:40:15.301Z,98349.03
2022-10-29T18:42:42.784Z,98352.59
2022-10-29T18:45:11.586Z,98352.19
2022-10-29T18:47:39.079Z,98349.03
2022-10-29T18:50:08.881Z,98351.75
2022-10-29T18:52:36.366Z,98347.19
2022-10-29T18:55:04.094Z,98344.06
2022-10-29T18:57:31.854Z,98347.22
2022-10-29T18:59:59.362Z,98346.78
2022-10-29T19:02:27.307Z,98341.78
2022-10-29T19:04:54.842Z,98347.25
2022-10-29T19:07:23.663Z,98351.59
2022-10-29T19:09:51.146Z,98350.75
2022-10-29T19:12:18.617Z,98347.47
2022-10-29T19:14:46.130Z,98349.13
2022-10-29T19:17:13.654Z,98352.66
2022-10-29T19:19:41.138Z,98348.94
2022-10-29T19:22:08.637Z,98345.78
2022-10-29T19:24:37.432Z,98339.59
2022-10-29T19:27:04.935Z,98339.81
2022-10-29T19:29:32.401Z,98345.22
2022-10-29T19:31:59.875Z,98340.03
2022-10-29T19:34:27.424Z,98338.34
2022-10-29T19:36:54.950Z,98340.44
2022-10-29T19:39:22.430Z,98334.00
2022-10-29T19:41:51.274Z,98333.44
2022-10-29T19:44:18.933Z,98334.28
2022-10-29T19:46:46.493Z,98333.44
2022-10-29T19:49:13.974Z,98338.66
2022-10-29T19:51:41.472Z,98332.19
2022-10-29T19:54:09.161Z,98329.53
2022-10-29T19:56:36.732Z,98332.84
2022-10-29T19:59:06.449Z,98338.66
2022-10-29T20:01:34.018Z,98339.69
2022-10-29T20:04:01.646Z,98338.63
2022-10-29T20:06:29.118Z,98338.25
2022-10-29T20:08:56.631Z,98336.34
2022-10-29T20:11:24.103Z,98334.47
2022-10-29T20:13:52.077Z,98336.78
2022-10-29T20:16:22.139Z,98340.50
2022-10-29T20:18:50.198Z,98332.22
2022-10-29T20:21:18.392Z,98333.28
2022-10-29T20:23:46.155Z,98336.19
2022-10-29T20:26:13.673Z,98335.72
2022-10-29T20:28:41.210Z,98336.56
2022-10-29T20:31:30.030Z,98340.34
2022-10-29T20:33:59.989Z,98337.63
2022-10-29T20:36:29.805Z,98341.59
2022-10-29T20:38:57.598Z,98342.59
2022-10-29T20:41:25.587Z,98338.88
2022-10-29T20:43:54.295Z,98336.59
2022-10-29T20:46:22.234Z,98340.31
2022-10-29T20:48:51.168Z,98343.25
2022-10-29T20:51:18.716Z,98344.72
2022-10-29T20:53:46.229Z,98342.81
2022-10-29T20:56:16.200Z,98353.41
2022-10-29T20:58:44.280Z,98351.13
2022-10-29T21:01:13.846Z,98346.78
2022-10-29T21:03:41.962Z,98345.31
2022-10-29T21:06:17.030Z,98349.47
2022-10-29T21:08:45.578Z,98346.97
2022-10-29T21:11:15.016Z,98344.91
2022-10-29T21:13:42.769Z,98345.97
2022-10-29T21:16:16.771Z,98349.47
2022-10-29T21:18:45.941Z,98353.63
2022-10-29T21:21:15.444Z,98350.31
2022-10-29T21:23:43.101Z,98357.59
2022-10-29T21:26:13.293Z,98353.81
2022-10-29T21:28:40.896Z,98353.19
2022-10-29T21:31:08.734Z,98348.22
2022-10-29T21:33:36.676Z,98350.31
2022-10-29T21:36:05.317Z,98347.59
2022-10-29T21:38:34.612Z,98336.16
2022-10-29T21:41:02.151Z,98345.84
2022-10-29T21:43:29.673Z,98347.13
2022-10-29T21:45:57.358Z,98344.19
2022-10-29T21:48:26.305Z,98342.72
2022-10-29T21:51:01.912Z,98345.66
2022-10-29T21:53:29.964Z,98344.50
2022-10-29T21:55:59.833Z,98342.75
2022-10-29T21:58:28.024Z,98336.16
2022-10-29T22:01:03.444Z,98341.78
2022-10-29T22:03:31.922Z,98336.97
2022-10-29T22:06:03.533Z,98339.91
2022-10-29T22:08:31.113Z,98340.06
2022-10-29T22:11:00.278Z,98331.81
2022-10-29T22:13:28.227Z,98342.81
2022-10-29T22:15:55.929Z,98342.06
2022-10-29T22:18:23.924Z,98340.69
2022-10-29T22:20:51.797Z,98336.56
2022-10-29T22:23:19.272Z,98336.38
2022-10-29T22:25:51.777Z,98330.78
2022-10-29T22:28:20.607Z,98341.53
2022-10-29T22:30:48.095Z,98335.94
2022-10-29T22:33:15.601Z,98326.41
2022-10-29T22:35:43.032Z,98335.53
2022-10-29T22:38:10.498Z,98329.06
2022-10-29T22:40:41.482Z,98326.84
2022-10-29T22:43:08.945Z,98325.19
2022-10-29T22:45:37.861Z,98321.44
2022-10-29T22:48:05.815Z,98317.91
2022-10-29T22:50:33.319Z,98319.56
2022-10-29T22:53:00.878Z,98308.75
2022-10-29T22:55:28.551Z,98311.25
2022-10-29T22:57:57.435Z,98307.53
2022-10-29T23:00:24.933Z,98305.84
2022-10-29T23:02:53.728Z,98310.84
2022-10-29T23:05:21.195Z,98308.16
2022-10-29T23:07:48.659Z,98311.25
2022-10-29T23:10:16.356Z,98316.25
2022-10-29T23:12:43.820Z,98312.94
2022-10-29T23:15:11.557Z,98311.47
2022-10-29T23:17:39.047Z,98309.59
2022-10-29T23:20:08.500Z,98317.25
2022-10-29T23:22:35.976Z,98316.88
2022-10-29T23:25:03.454Z,98318.91
2022-10-29T23:27:30.940Z,98318.31
2022-10-29T23:29:58.412Z,98317.25
2022-10-29T23:32:25.919Z,98317.47
2022-10-29T23:34:56.399Z,98307.09
2022-10-29T23:37:25.232Z,98308.31
2022-10-29T23:39:52.745Z,98305.63
2022-10-29T23:42:20.224Z,98309.16
2022-10-29T23:44:47.824Z,98305.78
2022-10-29T23:47:15.298Z,98316.03
2022-10-29T23:49:42.749Z,98303.34
2022-10-29T23:52:10.228Z,98312.81
2022-10-29T23:54:39.193Z,98301.50
2022-10-29T23:57:06.762Z,98304.72
2022-10-29T23:59:34.223Z,98299.81
